sensor_id;sensor_type;location;lat;lon;timestamp;P1;durP1;ratioP1;P2;durP2;ratioP2
5285;SDS011;2665;53.112;7.358;2023-04-24T00:02:07;2.73;;;0.70;;
5285;SDS011;2665;53.112;7.358;2023-04-24T00:04:35;1.70;;;0.70;;
5285;SDS011;2665;53.112;7.358;2023-04-24T00:07:05;1.90;;;0.60;;
5285;SDS011;2665;53.112;7.358;2023-04-24T00:09:31;1.70;;;0.70;;
5285;SDS011;2665;53.112;7.358;2023-04-24T00:11:57;1.90;;;0.70;;
5285;SDS011;2665;53.112;7.358;2023-04-24T00:14:23;1.70;;;0.60;;
5285;SDS011;2665;53.112;7.358;2023-04-24T00:16:49;2.90;;;0.67;;
5285;SDS011;2665;53.112;7.358;2023-04-24T00:19:15;2.17;;;0.70;;
5285;SDS011;2665;53.112;7.358;2023-04-24T00:21:41;1.60;;;0.57;;
5285;SDS011;2665;53.112;7.358;2023-04-24T00:24:07;1.80;;;0.60;;
5285;SDS011;2665;53.112;7.358;2023-04-24T00:26:35;1.90;;;0.80;;
5285;SDS011;2665;53.112;7.358;2023-04-24T00:29:01;1.80;;;0.70;;
5285;SDS011;2665;53.112;7.358;2023-04-24T00:31:27;1.77;;;0.70;;
5285;SDS011;2665;53.112;7.358;2023-04-24T00:33:52;1.80;;;0.83;;
5285;SDS011;2665;53.112;7.358;2023-04-24T00:36:18;1.70;;;0.63;;
5285;SDS011;2665;53.112;7.358;2023-04-24T00:38:45;1.90;;;0.73;;
5285;SDS011;2665;53.112;7.358;2023-04-24T00:41:11;1.70;;;0.80;;
5285;SDS011;2665;53.112;7.358;2023-04-24T00:43:37;1.67;;;0.73;;
5285;SDS011;2665;53.112;7.358;2023-04-24T00:46:02;1.90;;;1.03;;
5285;SDS011;2665;53.112;7.358;2023-04-24T00:48:28;1.80;;;0.73;;
5285;SDS011;2665;53.112;7.358;2023-04-24T00:50:55;1.90;;;0.93;;
5285;SDS011;2665;53.112;7.358;2023-04-24T00:53:22;1.80;;;0.70;;
5285;SDS011;2665;53.112;7.358;2023-04-24T00:55:47;1.90;;;1.00;;
5285;SDS011;2665;53.112;7.358;2023-04-24T00:58:13;1.90;;;0.93;;
5285;SDS011;2665;53.112;7.358;2023-04-24T01:00:39;2.00;;;1.00;;
5285;SDS011;2665;53.112;7.358;2023-04-24T01:03:05;1.90;;;1.00;;
5285;SDS011;2665;53.112;7.358;2023-04-24T01:05:32;1.90;;;0.90;;
5285;SDS011;2665;53.112;7.358;2023-04-24T01:07:58;1.80;;;0.90;;
5285;SDS011;2665;53.112;7.358;2023-04-24T01:10:24;1.90;;;0.97;;
5285;SDS011;2665;53.112;7.358;2023-04-24T01:12:52;2.00;;;1.00;;
5285;SDS011;2665;53.112;7.358;2023-04-24T01:15:18;2.00;;;1.23;;
5285;SDS011;2665;53.112;7.358;2023-04-24T01:17:44;2.07;;;1.20;;
5285;SDS011;2665;53.112;7.358;2023-04-24T01:20:10;2.10;;;1.17;;
5285;SDS011;2665;53.112;7.358;2023-04-24T01:22:35;2.20;;;1.20;;
5285;SDS011;2665;53.112;7.358;2023-04-24T01:25:01;2.70;;;1.50;;
5285;SDS011;2665;53.112;7.358;2023-04-24T01:27:28;2.73;;;1.47;;
5285;SDS011;2665;53.112;7.358;2023-04-24T01:29:54;2.40;;;1.53;;
5285;SDS011;2665;53.112;7.358;2023-04-24T01:32:19;3.27;;;1.70;;
5285;SDS011;2665;53.112;7.358;2023-04-24T01:34:45;2.43;;;1.53;;
5285;SDS011;2665;53.112;7.358;2023-04-24T01:37:12;2.80;;;2.00;;
5285;SDS011;2665;53.112;7.358;2023-04-24T01:39:37;2.80;;;1.63;;
5285;SDS011;2665;53.112;7.358;2023-04-24T01:42:03;2.90;;;1.97;;
5285;SDS011;2665;53.112;7.358;2023-04-24T01:44:30;3.00;;;2.13;;
5285;SDS011;2665;53.112;7.358;2023-04-24T01:46:56;2.87;;;1.73;;
5285;SDS011;2665;53.112;7.358;2023-04-24T01:49:22;3.10;;;2.30;;
5285;SDS011;2665;53.112;7.358;2023-04-24T01:51:47;3.03;;;1.90;;
5285;SDS011;2665;53.112;7.358;2023-04-24T01:54:13;2.40;;;1.60;;
5285;SDS011;2665;53.112;7.358;2023-04-24T01:56:42;2.40;;;1.63;;
5285;SDS011;2665;53.112;7.358;2023-04-24T01:59:11;4.13;;;1.90;;
5285;SDS011;2665;53.112;7.358;2023-04-24T02:01:38;2.80;;;2.00;;
5285;SDS011;2665;53.112;7.358;2023-04-24T02:04:05;2.60;;;1.70;;
5285;SDS011;2665;53.112;7.358;2023-04-24T02:06:31;3.53;;;2.13;;
5285;SDS011;2665;53.112;7.358;2023-04-24T02:08:57;3.30;;;2.40;;
5285;SDS011;2665;53.112;7.358;2023-04-24T02:11:24;4.40;;;2.67;;
5285;SDS011;2665;53.112;7.358;2023-04-24T02:13:50;2.90;;;2.10;;
5285;SDS011;2665;53.112;7.358;2023-04-24T02:16:16;2.73;;;2.20;;
5285;SDS011;2665;53.112;7.358;2023-04-24T02:18:42;3.80;;;2.13;;
5285;SDS011;2665;53.112;7.358;2023-04-24T02:21:08;3.90;;;2.53;;
5285;SDS011;2665;53.112;7.358;2023-04-24T02:23:33;3.17;;;2.23;;
5285;SDS011;2665;53.112;7.358;2023-04-24T02:25:59;4.30;;;2.40;;
5285;SDS011;2665;53.112;7.358;2023-04-24T02:28:25;3.33;;;2.87;;
5285;SDS011;2665;53.112;7.358;2023-04-24T02:30:50;4.20;;;3.37;;
5285;SDS011;2665;53.112;7.358;2023-04-24T02:33:16;3.60;;;2.83;;
5285;SDS011;2665;53.112;7.358;2023-04-24T02:35:42;5.27;;;2.93;;
5285;SDS011;2665;53.112;7.358;2023-04-24T02:38:07;4.60;;;3.17;;
5285;SDS011;2665;53.112;7.358;2023-04-24T02:40:33;4.37;;;3.47;;
5285;SDS011;2665;53.112;7.358;2023-04-24T02:42:58;3.87;;;3.30;;
5285;SDS011;2665;53.112;7.358;2023-04-24T02:45:24;4.33;;;3.80;;
5285;SDS011;2665;53.112;7.358;2023-04-24T02:47:49;4.17;;;3.47;;
5285;SDS011;2665;53.112;7.358;2023-04-24T02:50:15;4.03;;;3.07;;
5285;SDS011;2665;53.112;7.358;2023-04-24T02:52:41;3.70;;;3.27;;
5285;SDS011;2665;53.112;7.358;2023-04-24T02:55:06;4.10;;;3.07;;
5285;SDS011;2665;53.112;7.358;2023-04-24T02:57:33;5.43;;;3.20;;
5285;SDS011;2665;53.112;7.358;2023-04-24T02:59:58;4.30;;;3.57;;
5285;SDS011;2665;53.112;7.358;2023-04-24T03:02:24;5.10;;;3.70;;
5285;SDS011;2665;53.112;7.358;2023-04-24T03:04:50;5.17;;;3.60;;
5285;SDS011;2665;53.112;7.358;2023-04-24T03:07:16;4.70;;;3.53;;
5285;SDS011;2665;53.112;7.358;2023-04-24T03:09:41;4.07;;;3.30;;
5285;SDS011;2665;53.112;7.358;2023-04-24T03:12:07;4.77;;;3.73;;
5285;SDS011;2665;53.112;7.358;2023-04-24T03:14:32;4.20;;;2.97;;
5285;SDS011;2665;53.112;7.358;2023-04-24T03:16:58;4.07;;;3.47;;
5285;SDS011;2665;53.112;7.358;2023-04-24T03:19:24;4.30;;;3.33;;
5285;SDS011;2665;53.112;7.358;2023-04-24T03:21:49;8.93;;;3.50;;
5285;SDS011;2665;53.112;7.358;2023-04-24T03:24:15;5.83;;;4.20;;
5285;SDS011;2665;53.112;7.358;2023-04-24T03:26:41;5.30;;;3.30;;
5285;SDS011;2665;53.112;7.358;2023-04-24T03:29:06;5.57;;;3.40;;
5285;SDS011;2665;53.112;7.358;2023-04-24T03:31:32;4.20;;;3.67;;
5285;SDS011;2665;53.112;7.358;2023-04-24T03:33:58;3.63;;;3.30;;
5285;SDS011;2665;53.112;7.358;2023-04-24T03:36:23;4.30;;;2.93;;
5285;SDS011;2665;53.112;7.358;2023-04-24T03:38:49;3.73;;;2.67;;
5285;SDS011;2665;53.112;7.358;2023-04-24T03:41:15;4.17;;;3.47;;
5285;SDS011;2665;53.112;7.358;2023-04-24T03:43:40;5.10;;;3.37;;
5285;SDS011;2665;53.112;7.358;2023-04-24T03:46:06;3.63;;;3.33;;
5285;SDS011;2665;53.112;7.358;2023-04-24T03:48:34;3.60;;;3.10;;
5285;SDS011;2665;53.112;7.358;2023-04-24T03:51:00;6.23;;;3.07;;
5285;SDS011;2665;53.112;7.358;2023-04-24T03:53:25;3.77;;;2.90;;
5285;SDS011;2665;53.112;7.358;2023-04-24T03:55:51;3.80;;;2.90;;
5285;SDS011;2665;53.112;7.358;2023-04-24T03:58:17;4.00;;;3.33;;
5285;SDS011;2665;53.112;7.358;2023-04-24T04:00:43;4.33;;;3.50;;
5285;SDS011;2665;53.112;7.358;2023-04-24T04:03:11;4.80;;;2.37;;
5285;SDS011;2665;53.112;7.358;2023-04-24T04:05:38;4.10;;;2.93;;
5285;SDS011;2665;53.112;7.358;2023-04-24T04:08:04;3.10;;;2.43;;
5285;SDS011;2665;53.112;7.358;2023-04-24T04:10:30;4.50;;;3.23;;
5285;SDS011;2665;53.112;7.358;2023-04-24T04:12:55;4.00;;;2.73;;
5285;SDS011;2665;53.112;7.358;2023-04-24T04:15:21;4.10;;;2.17;;
5285;SDS011;2665;53.112;7.358;2023-04-24T04:17:46;2.93;;;2.00;;
5285;SDS011;2665;53.112;7.358;2023-04-24T04:20:12;3.50;;;1.97;;
5285;SDS011;2665;53.112;7.358;2023-04-24T04:22:38;2.60;;;1.77;;
5285;SDS011;2665;53.112;7.358;2023-04-24T04:25:04;3.70;;;2.40;;
5285;SDS011;2665;53.112;7.358;2023-04-24T04:27:30;2.90;;;2.30;;
5285;SDS011;2665;53.112;7.358;2023-04-24T04:30:00;3.13;;;2.10;;
5285;SDS011;2665;53.112;7.358;2023-04-24T04:32:32;4.30;;;2.10;;
5285;SDS011;2665;53.112;7.358;2023-04-24T04:35:02;4.77;;;1.87;;
5285;SDS011;2665;53.112;7.358;2023-04-24T04:37:29;3.30;;;2.13;;
5285;SDS011;2665;53.112;7.358;2023-04-24T04:39:55;3.40;;;2.20;;
5285;SDS011;2665;53.112;7.358;2023-04-24T04:42:20;2.90;;;2.27;;
5285;SDS011;2665;53.112;7.358;2023-04-24T04:44:46;3.47;;;2.13;;
5285;SDS011;2665;53.112;7.358;2023-04-24T04:47:12;2.90;;;2.20;;
5285;SDS011;2665;53.112;7.358;2023-04-24T04:49:38;3.20;;;2.27;;
5285;SDS011;2665;53.112;7.358;2023-04-24T04:52:03;4.43;;;2.07;;
5285;SDS011;2665;53.112;7.358;2023-04-24T04:54:32;2.80;;;2.00;;
5285;SDS011;2665;53.112;7.358;2023-04-24T04:56:57;3.43;;;1.83;;
5285;SDS011;2665;53.112;7.358;2023-04-24T04:59:23;3.47;;;2.57;;
5285;SDS011;2665;53.112;7.358;2023-04-24T05:01:49;3.07;;;2.07;;
5285;SDS011;2665;53.112;7.358;2023-04-24T05:04:15;3.97;;;2.20;;
5285;SDS011;2665;53.112;7.358;2023-04-24T05:06:40;3.17;;;2.00;;
5285;SDS011;2665;53.112;7.358;2023-04-24T05:09:06;4.00;;;3.00;;
5285;SDS011;2665;53.112;7.358;2023-04-24T05:11:32;4.00;;;2.50;;
5285;SDS011;2665;53.112;7.358;2023-04-24T05:13:58;3.27;;;2.30;;
5285;SDS011;2665;53.112;7.358;2023-04-24T05:16:23;4.30;;;2.60;;
5285;SDS011;2665;53.112;7.358;2023-04-24T05:18:49;3.47;;;2.80;;
5285;SDS011;2665;53.112;7.358;2023-04-24T05:21:15;4.73;;;3.27;;
5285;SDS011;2665;53.112;7.358;2023-04-24T05:23:40;3.80;;;2.60;;
5285;SDS011;2665;53.112;7.358;2023-04-24T05:26:06;6.37;;;2.90;;
5285;SDS011;2665;53.112;7.358;2023-04-24T05:28:31;6.97;;;3.70;;
5285;SDS011;2665;53.112;7.358;2023-04-24T05:30:57;4.10;;;2.77;;
5285;SDS011;2665;53.112;7.358;2023-04-24T05:33:24;3.60;;;2.40;;
5285;SDS011;2665;53.112;7.358;2023-04-24T05:35:50;4.93;;;2.87;;
5285;SDS011;2665;53.112;7.358;2023-04-24T05:38:16;5.83;;;3.07;;
5285;SDS011;2665;53.112;7.358;2023-04-24T05:40:44;3.37;;;2.30;;
5285;SDS011;2665;53.112;7.358;2023-04-24T05:43:13;3.47;;;2.30;;
5285;SDS011;2665;53.112;7.358;2023-04-24T05:45:38;3.93;;;2.80;;
5285;SDS011;2665;53.112;7.358;2023-04-24T05:48:04;3.67;;;2.50;;
5285;SDS011;2665;53.112;7.358;2023-04-24T05:50:30;3.30;;;2.60;;
5285;SDS011;2665;53.112;7.358;2023-04-24T05:52:56;3.50;;;2.33;;
5285;SDS011;2665;53.112;7.358;2023-04-24T05:55:26;2.90;;;2.20;;
5285;SDS011;2665;53.112;7.358;2023-04-24T05:57:52;5.00;;;2.30;;
5285;SDS011;2665;53.112;7.358;2023-04-24T06:00:18;3.53;;;2.13;;
5285;SDS011;2665;53.112;7.358;2023-04-24T06:02:45;2.90;;;2.23;;
5285;SDS011;2665;53.112;7.358;2023-04-24T06:05:11;4.30;;;2.93;;
5285;SDS011;2665;53.112;7.358;2023-04-24T06:07:37;4.47;;;2.40;;
5285;SDS011;2665;53.112;7.358;2023-04-24T06:10:02;4.63;;;3.13;;
5285;SDS011;2665;53.112;7.358;2023-04-24T06:12:28;3.70;;;2.87;;
5285;SDS011;2665;53.112;7.358;2023-04-24T06:14:54;3.27;;;2.50;;
5285;SDS011;2665;53.112;7.358;2023-04-24T06:17:20;2.63;;;2.00;;
5285;SDS011;2665;53.112;7.358;2023-04-24T06:19:46;3.73;;;2.53;;
5285;SDS011;2665;53.112;7.358;2023-04-24T06:22:12;3.10;;;2.50;;
5285;SDS011;2665;53.112;7.358;2023-04-24T06:24:39;6.20;;;2.67;;
5285;SDS011;2665;53.112;7.358;2023-04-24T06:27:05;2.80;;;2.00;;
5285;SDS011;2665;53.112;7.358;2023-04-24T06:29:30;3.37;;;2.40;;
5285;SDS011;2665;53.112;7.358;2023-04-24T06:31:56;3.53;;;1.97;;
5285;SDS011;2665;53.112;7.358;2023-04-24T06:34:21;3.00;;;2.23;;
5285;SDS011;2665;53.112;7.358;2023-04-24T06:36:47;2.50;;;1.80;;
5285;SDS011;2665;53.112;7.358;2023-04-24T06:39:13;2.80;;;1.80;;
5285;SDS011;2665;53.112;7.358;2023-04-24T06:41:38;2.33;;;1.53;;
5285;SDS011;2665;53.112;7.358;2023-04-24T06:44:05;2.97;;;1.90;;
5285;SDS011;2665;53.112;7.358;2023-04-24T06:46:30;2.43;;;1.67;;
5285;SDS011;2665;53.112;7.358;2023-04-24T06:48:56;3.20;;;1.50;;
5285;SDS011;2665;53.112;7.358;2023-04-24T06:51:25;3.20;;;1.90;;
5285;SDS011;2665;53.112;7.358;2023-04-24T06:53:52;2.23;;;1.30;;
5285;SDS011;2665;53.112;7.358;2023-04-24T06:56:18;2.40;;;1.40;;
5285;SDS011;2665;53.112;7.358;2023-04-24T06:58:44;2.50;;;1.40;;
5285;SDS011;2665;53.112;7.358;2023-04-24T07:01:10;2.20;;;1.30;;
5285;SDS011;2665;53.112;7.358;2023-04-24T07:03:36;2.40;;;1.50;;
5285;SDS011;2665;53.112;7.358;2023-04-24T07:06:01;2.23;;;1.40;;
5285;SDS011;2665;53.112;7.358;2023-04-24T07:08:28;7.30;;;1.10;;
5285;SDS011;2665;53.112;7.358;2023-04-24T07:10:55;2.33;;;0.93;;
5285;SDS011;2665;53.112;7.358;2023-04-24T07:13:21;1.90;;;0.80;;
5285;SDS011;2665;53.112;7.358;2023-04-24T07:15:47;1.80;;;0.80;;
5285;SDS011;2665;53.112;7.358;2023-04-24T07:18:15;2.00;;;0.90;;
5285;SDS011;2665;53.112;7.358;2023-04-24T07:20:41;2.10;;;0.80;;
5285;SDS011;2665;53.112;7.358;2023-04-24T07:23:07;2.00;;;1.00;;
5285;SDS011;2665;53.112;7.358;2023-04-24T07:25:33;5.03;;;1.10;;
5285;SDS011;2665;53.112;7.358;2023-04-24T07:27:59;2.30;;;0.80;;
5285;SDS011;2665;53.112;7.358;2023-04-24T07:30:24;1.90;;;0.77;;
5285;SDS011;2665;53.112;7.358;2023-04-24T07:32:50;2.37;;;1.20;;
5285;SDS011;2665;53.112;7.358;2023-04-24T07:35:16;2.17;;;0.90;;
5285;SDS011;2665;53.112;7.358;2023-04-24T07:37:42;1.80;;;0.90;;
5285;SDS011;2665;53.112;7.358;2023-04-24T07:40:11;2.10;;;1.00;;
5285;SDS011;2665;53.112;7.358;2023-04-24T07:42:40;2.43;;;1.03;;
5285;SDS011;2665;53.112;7.358;2023-04-24T07:45:06;2.10;;;1.30;;
5285;SDS011;2665;53.112;7.358;2023-04-24T07:47:32;2.00;;;1.03;;
5285;SDS011;2665;53.112;7.358;2023-04-24T07:49:58;2.40;;;1.33;;
5285;SDS011;2665;53.112;7.358;2023-04-24T07:52:24;2.10;;;1.20;;
5285;SDS011;2665;53.112;7.358;2023-04-24T07:54:50;2.20;;;1.03;;
5285;SDS011;2665;53.112;7.358;2023-04-24T07:57:18;2.70;;;1.60;;
5285;SDS011;2665;53.112;7.358;2023-04-24T07:59:44;2.33;;;1.63;;
5285;SDS011;2665;53.112;7.358;2023-04-24T08:02:10;2.90;;;1.90;;
5285;SDS011;2665;53.112;7.358;2023-04-24T08:04:35;2.90;;;1.97;;
5285;SDS011;2665;53.112;7.358;2023-04-24T08:07:01;3.10;;;1.90;;
5285;SDS011;2665;53.112;7.358;2023-04-24T08:09:27;3.73;;;2.43;;
5285;SDS011;2665;53.112;7.358;2023-04-24T08:11:52;4.10;;;2.53;;
5285;SDS011;2665;53.112;7.358;2023-04-24T08:14:18;3.53;;;2.63;;
5285;SDS011;2665;53.112;7.358;2023-04-24T08:16:46;3.60;;;2.17;;
5285;SDS011;2665;53.112;7.358;2023-04-24T08:19:11;3.70;;;2.33;;
5285;SDS011;2665;53.112;7.358;2023-04-24T08:21:37;4.80;;;2.20;;
5285;SDS011;2665;53.112;7.358;2023-04-24T08:24:03;3.47;;;2.17;;
5285;SDS011;2665;53.112;7.358;2023-04-24T08:26:32;4.50;;;2.40;;
5285;SDS011;2665;53.112;7.358;2023-04-24T08:28:58;4.30;;;2.80;;
5285;SDS011;2665;53.112;7.358;2023-04-24T08:31:23;6.20;;;2.50;;
5285;SDS011;2665;53.112;7.358;2023-04-24T08:33:50;4.20;;;2.57;;
5285;SDS011;2665;53.112;7.358;2023-04-24T08:36:16;4.37;;;2.83;;
5285;SDS011;2665;53.112;7.358;2023-04-24T08:38:42;2.87;;;1.97;;
5285;SDS011;2665;53.112;7.358;2023-04-24T08:41:07;3.90;;;2.70;;
5285;SDS011;2665;53.112;7.358;2023-04-24T08:43:34;3.00;;;2.37;;
5285;SDS011;2665;53.112;7.358;2023-04-24T08:46:01;3.27;;;2.53;;
5285;SDS011;2665;53.112;7.358;2023-04-24T08:48:28;4.10;;;2.87;;
5285;SDS011;2665;53.112;7.358;2023-04-24T08:50:55;3.77;;;2.10;;
5285;SDS011;2665;53.112;7.358;2023-04-24T08:53:22;3.07;;;2.10;;
5285;SDS011;2665;53.112;7.358;2023-04-24T08:55:49;2.93;;;2.00;;
5285;SDS011;2665;53.112;7.358;2023-04-24T08:58:16;3.20;;;2.30;;
5285;SDS011;2665;53.112;7.358;2023-04-24T09:00:45;3.50;;;2.40;;
5285;SDS011;2665;53.112;7.358;2023-04-24T09:03:15;3.50;;;1.60;;
5285;SDS011;2665;53.112;7.358;2023-04-24T09:05:46;2.40;;;1.60;;
5285;SDS011;2665;53.112;7.358;2023-04-24T09:08:12;2.00;;;1.00;;
5285;SDS011;2665;53.112;7.358;2023-04-24T09:10:39;2.10;;;1.00;;
5285;SDS011;2665;53.112;7.358;2023-04-24T09:13:05;2.03;;;1.33;;
5285;SDS011;2665;53.112;7.358;2023-04-24T09:15:34;2.00;;;1.07;;
5285;SDS011;2665;53.112;7.358;2023-04-24T09:18:00;2.50;;;1.03;;
5285;SDS011;2665;53.112;7.358;2023-04-24T09:20:26;1.80;;;1.10;;
5285;SDS011;2665;53.112;7.358;2023-04-24T09:22:53;2.40;;;1.00;;
5285;SDS011;2665;53.112;7.358;2023-04-24T09:25:20;3.67;;;1.70;;
5285;SDS011;2665;53.112;7.358;2023-04-24T09:27:46;3.40;;;1.63;;
5285;SDS011;2665;53.112;7.358;2023-04-24T09:30:12;1.90;;;1.10;;
5285;SDS011;2665;53.112;7.358;2023-04-24T09:32:39;2.73;;;1.00;;
5285;SDS011;2665;53.112;7.358;2023-04-24T09:35:06;2.37;;;1.10;;
5285;SDS011;2665;53.112;7.358;2023-04-24T09:37:43;1.70;;;0.80;;
5285;SDS011;2665;53.112;7.358;2023-04-24T09:40:11;2.43;;;1.13;;
5285;SDS011;2665;53.112;7.358;2023-04-24T09:42:38;2.50;;;1.10;;
5285;SDS011;2665;53.112;7.358;2023-04-24T09:45:09;2.73;;;1.37;;
5285;SDS011;2665;53.112;7.358;2023-04-24T09:47:36;2.73;;;1.53;;
5285;SDS011;2665;53.112;7.358;2023-04-24T09:50:10;5.57;;;2.00;;
5285;SDS011;2665;53.112;7.358;2023-04-24T09:52:47;4.60;;;2.70;;
5285;SDS011;2665;53.112;7.358;2023-04-24T09:55:24;11.03;;;3.30;;
5285;SDS011;2665;53.112;7.358;2023-04-24T09:57:59;5.27;;;3.60;;
5285;SDS011;2665;53.112;7.358;2023-04-24T10:00:26;9.43;;;4.40;;
5285;SDS011;2665;53.112;7.358;2023-04-24T10:02:54;11.63;;;5.00;;
5285;SDS011;2665;53.112;7.358;2023-04-24T10:05:30;10.73;;;6.07;;
5285;SDS011;2665;53.112;7.358;2023-04-24T10:10:28;7.97;;;5.60;;
5285;SDS011;2665;53.112;7.358;2023-04-24T10:12:54;12.97;;;5.50;;
5285;SDS011;2665;53.112;7.358;2023-04-24T10:15:21;13.40;;;6.20;;
5285;SDS011;2665;53.112;7.358;2023-04-24T10:17:50;9.70;;;5.60;;
5285;SDS011;2665;53.112;7.358;2023-04-24T10:20:23;12.40;;;6.90;;
5285;SDS011;2665;53.112;7.358;2023-04-24T10:22:51;16.77;;;5.87;;
5285;SDS011;2665;53.112;7.358;2023-04-24T10:25:22;9.60;;;5.53;;
5285;SDS011;2665;53.112;7.358;2023-04-24T10:27:49;14.37;;;6.50;;
5285;SDS011;2665;53.112;7.358;2023-04-24T10:30:16;10.47;;;6.30;;
5285;SDS011;2665;53.112;7.358;2023-04-24T10:32:45;8.60;;;4.70;;
5285;SDS011;2665;53.112;7.358;2023-04-24T10:35:12;8.53;;;5.23;;
5285;SDS011;2665;53.112;7.358;2023-04-24T10:37:40;8.00;;;5.03;;
5285;SDS011;2665;53.112;7.358;2023-04-24T10:40:11;5.33;;;4.57;;
5285;SDS011;2665;53.112;7.358;2023-04-24T10:42:42;9.10;;;5.37;;
5285;SDS011;2665;53.112;7.358;2023-04-24T10:45:18;12.40;;;5.30;;
5285;SDS011;2665;53.112;7.358;2023-04-24T10:48:30;6.57;;;4.47;;
5285;SDS011;2665;53.112;7.358;2023-04-24T10:53:13;13.03;;;6.13;;
5285;SDS011;2665;53.112;7.358;2023-04-24T10:55:47;7.17;;;5.20;;
5285;SDS011;2665;53.112;7.358;2023-04-24T10:58:21;7.03;;;4.67;;
5285;SDS011;2665;53.112;7.358;2023-04-24T11:00:58;11.60;;;5.00;;
5285;SDS011;2665;53.112;7.358;2023-04-24T11:03:28;7.97;;;4.43;;
5285;SDS011;2665;53.112;7.358;2023-04-24T11:08:29;10.23;;;4.33;;
5285;SDS011;2665;53.112;7.358;2023-04-24T11:11:03;10.63;;;3.50;;
5285;SDS011;2665;53.112;7.358;2023-04-24T11:18:52;3.43;;;2.50;;
5285;SDS011;2665;53.112;7.358;2023-04-24T11:21:24;4.10;;;3.10;;
5285;SDS011;2665;53.112;7.358;2023-04-24T11:23:51;5.63;;;3.37;;
5285;SDS011;2665;53.112;7.358;2023-04-24T11:26:18;6.77;;;3.17;;
5285;SDS011;2665;53.112;7.358;2023-04-24T11:28:49;15.20;;;3.60;;
5285;SDS011;2665;53.112;7.358;2023-04-24T11:31:34;6.10;;;3.37;;
5285;SDS011;2665;53.112;7.358;2023-04-24T11:36:35;6.40;;;3.97;;
5285;SDS011;2665;53.112;7.358;2023-04-24T11:39:01;9.93;;;3.50;;
5285;SDS011;2665;53.112;7.358;2023-04-24T11:41:26;8.67;;;3.27;;
5285;SDS011;2665;53.112;7.358;2023-04-24T11:43:53;6.73;;;3.23;;
5285;SDS011;2665;53.112;7.358;2023-04-24T11:46:26;4.20;;;2.83;;
5285;SDS011;2665;53.112;7.358;2023-04-24T11:48:56;6.57;;;3.13;;
5285;SDS011;2665;53.112;7.358;2023-04-24T11:51:23;5.50;;;3.60;;
5285;SDS011;2665;53.112;7.358;2023-04-24T11:53:50;4.77;;;2.77;;
5285;SDS011;2665;53.112;7.358;2023-04-24T11:56:20;6.23;;;3.00;;
5285;SDS011;2665;53.112;7.358;2023-04-24T11:58:47;3.67;;;2.67;;
5285;SDS011;2665;53.112;7.358;2023-04-24T12:01:13;9.07;;;3.53;;
5285;SDS011;2665;53.112;7.358;2023-04-24T12:03:39;10.17;;;2.57;;
5285;SDS011;2665;53.112;7.358;2023-04-24T12:06:08;12.00;;;3.20;;
5285;SDS011;2665;53.112;7.358;2023-04-24T12:08:35;4.07;;;1.97;;
5285;SDS011;2665;53.112;7.358;2023-04-24T12:11:02;6.20;;;2.20;;
5285;SDS011;2665;53.112;7.358;2023-04-24T12:13:29;4.50;;;2.17;;
5285;SDS011;2665;53.112;7.358;2023-04-24T12:15:59;2.57;;;1.50;;
5285;SDS011;2665;53.112;7.358;2023-04-24T12:18:25;3.10;;;1.63;;
5285;SDS011;2665;53.112;7.358;2023-04-24T12:20:51;4.57;;;1.57;;
5285;SDS011;2665;53.112;7.358;2023-04-24T12:23:32;4.17;;;1.33;;
5285;SDS011;2665;53.112;7.358;2023-04-24T12:26:03;5.17;;;2.23;;
5285;SDS011;2665;53.112;7.358;2023-04-24T12:28:36;3.90;;;1.63;;
5285;SDS011;2665;53.112;7.358;2023-04-24T12:31:02;4.90;;;2.67;;
5285;SDS011;2665;53.112;7.358;2023-04-24T12:33:31;4.30;;;1.37;;
5285;SDS011;2665;53.112;7.358;2023-04-24T12:35:58;3.57;;;2.00;;
5285;SDS011;2665;53.112;7.358;2023-04-24T12:38:25;3.93;;;1.67;;
5285;SDS011;2665;53.112;7.358;2023-04-24T12:41:05;6.10;;;1.80;;
5285;SDS011;2665;53.112;7.358;2023-04-24T12:43:36;4.30;;;1.90;;
5285;SDS011;2665;53.112;7.358;2023-04-24T12:46:02;7.40;;;2.13;;
5285;SDS011;2665;53.112;7.358;2023-04-24T12:48:28;4.97;;;1.70;;
5285;SDS011;2665;53.112;7.358;2023-04-24T12:50:56;3.40;;;1.53;;
5285;SDS011;2665;53.112;7.358;2023-04-24T12:53:25;4.07;;;1.23;;
5285;SDS011;2665;53.112;7.358;2023-04-24T12:55:51;3.63;;;1.33;;
5285;SDS011;2665;53.112;7.358;2023-04-24T12:58:21;5.73;;;1.90;;
5285;SDS011;2665;53.112;7.358;2023-04-24T13:00:47;12.03;;;1.40;;
5285;SDS011;2665;53.112;7.358;2023-04-24T13:03:12;2.43;;;1.23;;
5285;SDS011;2665;53.112;7.358;2023-04-24T13:05:38;3.57;;;1.53;;
5285;SDS011;2665;53.112;7.358;2023-04-24T13:08:04;7.93;;;1.77;;
5285;SDS011;2665;53.112;7.358;2023-04-24T13:10:30;7.40;;;2.40;;
5285;SDS011;2665;53.112;7.358;2023-04-24T13:12:59;3.70;;;1.50;;
5285;SDS011;2665;53.112;7.358;2023-04-24T13:15:24;4.27;;;1.77;;
5285;SDS011;2665;53.112;7.358;2023-04-24T13:17:50;4.80;;;1.70;;
5285;SDS011;2665;53.112;7.358;2023-04-24T13:20:16;4.80;;;1.93;;
5285;SDS011;2665;53.112;7.358;2023-04-24T13:22:42;5.33;;;1.37;;
5285;SDS011;2665;53.112;7.358;2023-04-24T13:25:08;3.20;;;1.10;;
5285;SDS011;2665;53.112;7.358;2023-04-24T13:27:35;3.90;;;1.37;;
5285;SDS011;2665;53.112;7.358;2023-04-24T13:30:00;3.60;;;1.17;;
5285;SDS011;2665;53.112;7.358;2023-04-24T13:32:26;5.17;;;1.03;;
5285;SDS011;2665;53.112;7.358;2023-04-24T13:34:53;4.60;;;1.00;;
5285;SDS011;2665;53.112;7.358;2023-04-24T13:37:18;2.20;;;0.83;;
5285;SDS011;2665;53.112;7.358;2023-04-24T13:39:44;2.10;;;1.00;;
5285;SDS011;2665;53.112;7.358;2023-04-24T13:42:09;2.97;;;0.80;;
5285;SDS011;2665;53.112;7.358;2023-04-24T13:44:35;1.70;;;0.70;;
5285;SDS011;2665;53.112;7.358;2023-04-24T13:47:01;2.00;;;0.87;;
5285;SDS011;2665;53.112;7.358;2023-04-24T13:49:27;3.70;;;1.20;;
5285;SDS011;2665;53.112;7.358;2023-04-24T13:51:54;5.30;;;1.63;;
5285;SDS011;2665;53.112;7.358;2023-04-24T13:54:20;2.50;;;0.83;;
5285;SDS011;2665;53.112;7.358;2023-04-24T13:56:48;3.20;;;1.30;;
5285;SDS011;2665;53.112;7.358;2023-04-24T13:59:14;1.90;;;0.80;;
5285;SDS011;2665;53.112;7.358;2023-04-24T14:01:39;4.03;;;0.90;;
5285;SDS011;2665;53.112;7.358;2023-04-24T14:04:05;3.13;;;0.90;;
5285;SDS011;2665;53.112;7.358;2023-04-24T14:06:31;2.07;;;0.93;;
5285;SDS011;2665;53.112;7.358;2023-04-24T14:08:57;2.87;;;1.00;;
5285;SDS011;2665;53.112;7.358;2023-04-24T14:11:22;2.30;;;0.83;;
5285;SDS011;2665;53.112;7.358;2023-04-24T14:13:48;4.47;;;0.93;;
5285;SDS011;2665;53.112;7.358;2023-04-24T14:16:14;3.23;;;1.03;;
5285;SDS011;2665;53.112;7.358;2023-04-24T14:18:40;2.63;;;0.70;;
5285;SDS011;2665;53.112;7.358;2023-04-24T14:21:06;4.53;;;0.80;;
5285;SDS011;2665;53.112;7.358;2023-04-24T14:23:32;4.33;;;0.90;;
5285;SDS011;2665;53.112;7.358;2023-04-24T14:25:58;1.87;;;0.70;;
5285;SDS011;2665;53.112;7.358;2023-04-24T14:28:24;3.20;;;0.70;;
5285;SDS011;2665;53.112;7.358;2023-04-24T14:30:51;2.80;;;0.87;;
5285;SDS011;2665;53.112;7.358;2023-04-24T14:33:17;3.97;;;2.87;;
5285;SDS011;2665;53.112;7.358;2023-04-24T14:35:43;2.93;;;0.97;;
5285;SDS011;2665;53.112;7.358;2023-04-24T14:38:09;2.43;;;0.70;;
5285;SDS011;2665;53.112;7.358;2023-04-24T14:40:35;5.10;;;0.80;;
5285;SDS011;2665;53.112;7.358;2023-04-24T14:43:01;2.30;;;1.00;;
5285;SDS011;2665;53.112;7.358;2023-04-24T14:45:26;4.23;;;1.27;;
5285;SDS011;2665;53.112;7.358;2023-04-24T14:47:52;3.30;;;0.90;;
5285;SDS011;2665;53.112;7.358;2023-04-24T14:50:19;2.30;;;0.70;;
5285;SDS011;2665;53.112;7.358;2023-04-24T14:52:45;2.23;;;0.77;;
5285;SDS011;2665;53.112;7.358;2023-04-24T14:55:11;3.20;;;0.80;;
5285;SDS011;2665;53.112;7.358;2023-04-24T14:57:37;4.43;;;1.37;;
5285;SDS011;2665;53.112;7.358;2023-04-24T15:00:03;2.30;;;0.87;;
5285;SDS011;2665;53.112;7.358;2023-04-24T15:02:34;2.67;;;0.90;;
5285;SDS011;2665;53.112;7.358;2023-04-24T15:05:01;2.00;;;0.90;;
5285;SDS011;2665;53.112;7.358;2023-04-24T15:07:27;3.03;;;0.80;;
5285;SDS011;2665;53.112;7.358;2023-04-24T15:09:57;2.17;;;0.70;;
5285;SDS011;2665;53.112;7.358;2023-04-24T15:12:22;1.70;;;0.63;;
5285;SDS011;2665;53.112;7.358;2023-04-24T15:14:48;4.70;;;0.93;;
5285;SDS011;2665;53.112;7.358;2023-04-24T15:17:14;3.73;;;0.80;;
5285;SDS011;2665;53.112;7.358;2023-04-24T15:19:39;2.10;;;1.00;;
5285;SDS011;2665;53.112;7.358;2023-04-24T15:22:05;2.93;;;0.80;;
5285;SDS011;2665;53.112;7.358;2023-04-24T15:24:30;4.33;;;0.90;;
5285;SDS011;2665;53.112;7.358;2023-04-24T15:26:56;1.83;;;0.83;;
5285;SDS011;2665;53.112;7.358;2023-04-24T15:29:22;2.00;;;0.80;;